createdAt,value
2023-03-11T11:22:06.317Z,9.03
2023-03-11T11:27:23.998Z,8.31
2023-03-11T11:32:26.638Z,6.65
2023-03-11T11:37:34.723Z,7.58
2023-03-11T11:42:38.910Z,8.26
2023-03-11T11:47:47.100Z,8.92
2023-03-11T11:52:55.308Z,9.04
2023-03-11T11:57:57.540Z,7.58
2023-03-11T12:03:08.221Z,9.35
2023-03-11T12:08:27.193Z,5.87
2023-03-11T12:13:50.183Z,8.72
2023-03-11T12:19:16.994Z,9.38
2023-03-11T12:24:30.626Z,8.42
2023-03-11T12:29:43.476Z,9.35
2023-03-11T12:34:46.251Z,8.08
2023-03-11T12:39:49.514Z,8.39
2023-03-11T12:44:52.024Z,8.92
2023-03-11T12:49:55.806Z,8.52
2023-03-11T12:55:01.181Z,9.03
2023-03-11T13:00:27.488Z,6.60
2023-03-11T13:05:50.664Z,8.51
2023-03-11T13:10:54.938Z,8.84
2023-03-11T13:15:57.596Z,9.07
2023-03-11T13:21:01.753Z,9.03
2023-03-11T13:26:36.333Z,8.21
2023-03-11T13:31:40.952Z,9.39
2023-03-11T13:37:04.851Z,9.29
2023-03-11T13:42:20.199Z,9.19
2023-03-11T13:47:23.609Z,10.39
2023-03-11T13:52:38.356Z,8.39
2023-03-11T13:57:39.997Z,10.84
2023-03-11T14:02:51.049Z,7.95
2023-03-11T14:07:53.629Z,7.88
2023-03-11T14:13:06.908Z,8.11
2023-03-11T14:18:40.820Z,8.40
2023-03-11T14:23:46.446Z,9.70
2023-03-11T14:28:52.176Z,11.37
2023-03-11T14:34:09.929Z,11.19
2023-03-11T14:39:33.884Z,9.93
2023-03-11T14:44:40.425Z,10.73
2023-03-11T14:49:42.645Z,12.61
2023-03-11T14:54:46.057Z,9.08
2023-03-11T14:59:50.685Z,8.29
2023-03-11T15:04:54.791Z,11.26
2023-03-11T15:09:56.819Z,8.67
2023-03-11T15:14:58.977Z,10.80
2023-03-11T15:20:00.638Z,10.48
2023-03-11T15:25:05.425Z,11.55
2023-03-11T15:30:28.648Z,10.01
2023-03-11T15:35:31.308Z,8.81
2023-03-11T15:40:44.853Z,11.13
2023-03-11T15:45:49.037Z,10.91
2023-03-11T15:51:00.723Z,10.63
2023-03-11T15:56:10.947Z,11.88
2023-03-11T16:01:12.650Z,9.25
2023-03-11T16:06:14.420Z,10.67
2023-03-11T16:11:16.721Z,10.24
2023-03-11T16:16:18.835Z,9.16
2023-03-11T16:21:24.252Z,9.65
2023-03-11T16:26:26.003Z,11.78
2023-03-11T16:31:28.283Z,10.60
2023-03-11T16:36:30.193Z,9.76
2023-03-11T16:41:42.289Z,10.78
2023-03-11T16:46:44.073Z,11.66
2023-03-11T16:51:45.937Z,10.80
2023-03-11T16:56:47.703Z,12.05
2023-03-11T17:01:49.507Z,13.27
2023-03-11T17:06:51.139Z,13.64
2023-03-11T17:11:53.497Z,12.28
2023-03-11T17:16:55.334Z,14.00
2023-03-11T17:21:57.756Z,13.48
2023-03-11T17:26:59.496Z,8.75
2023-03-11T17:32:02.085Z,8.70
2023-03-11T17:37:03.742Z,7.02
2023-03-11T17:42:05.789Z,7.27
2023-03-11T17:47:07.500Z,7.63
2023-03-11T17:52:09.395Z,8.20
2023-03-11T17:57:11.250Z,8.57
2023-03-11T18:02:14.352Z,8.63
2023-03-11T18:07:16.114Z,9.10
2023-03-11T18:12:17.834Z,8.69
2023-03-11T18:17:21.129Z,8.20
2023-03-11T18:22:22.863Z,9.42
2023-03-11T18:27:24.721Z,9.83
2023-03-11T18:32:26.471Z,8.78
2023-03-11T18:37:28.280Z,8.20
2023-03-11T18:42:29.893Z,8.78
2023-03-11T18:47:35.625Z,9.68
2023-03-11T18:52:37.280Z,10.07
2023-03-11T18:57:41.708Z,8.35
2023-03-11T19:02:43.531Z,8.15
2023-03-11T19:07:45.376Z,7.02
2023-03-11T19:12:47.281Z,8.34
2023-03-11T19:18:00.575Z,8.85
2023-03-11T19:23:07.759Z,8.84
2023-03-11T19:28:09.387Z,9.73
2023-03-11T19:33:11.249Z,8.73
2023-03-11T19:38:12.928Z,8.36
2023-03-11T19:43:15.023Z,8.54
2023-03-11T19:48:17.061Z,6.71
2023-03-11T19:53:19.109Z,7.28
2023-03-11T19:58:21.843Z,8.95
2023-03-11T20:03:25.083Z,8.83
2023-03-11T20:08:26.967Z,8.43
2023-03-11T20:13:29.081Z,6.90
2023-03-11T20:18:30.814Z,9.62
2023-03-11T20:23:33.041Z,8.40
2023-03-11T20:28:34.813Z,9.06
2023-03-11T20:33:37.982Z,8.82
2023-03-11T20:38:40.092Z,8.58
2023-03-11T20:43:42.232Z,7.49
2023-03-11T20:48:43.965Z,6.79
2023-03-11T20:53:46.483Z,6.06
2023-03-11T20:58:51.147Z,6.25
2023-03-11T21:03:55.437Z,7.42
2023-03-11T21:08:58.865Z,6.86
2023-03-11T21:14:00.802Z,6.91
2023-03-11T21:19:05.532Z,6.81
2023-03-11T21:24:07.992Z,8.01
2023-03-11T21:29:10.108Z,6.50
2023-03-11T21:34:12.059Z,6.63
2023-03-11T21:39:15.247Z,6.05
2023-03-11T21:44:17.836Z,7.28
2023-03-11T21:49:19.610Z,6.33
2023-03-11T21:54:21.261Z,6.16
2023-03-11T21:59:25.423Z,6.84
2023-03-11T22:04:27.393Z,6.13
2023-03-11T22:09:29.260Z,5.87
2023-03-11T22:14:31.060Z,5.73
2023-03-11T22:19:32.942Z,5.10
2023-03-11T22:24:34.614Z,4.47
2023-03-11T22:29:36.394Z,4.25
2023-03-11T22:34:38.087Z,3.89
2023-03-11T22:39:39.723Z,4.84
2023-03-11T22:44:41.399Z,4.58
2023-03-11T22:49:43.150Z,5.32
2023-03-11T22:54:44.831Z,5.39
2023-03-11T22:59:46.548Z,4.11
2023-03-11T23:04:48.204Z,4.14
2023-03-11T23:09:50.062Z,3.98
2023-03-11T23:14:51.993Z,4.65
2023-03-11T23:19:53.607Z,5.92
2023-03-11T23:24:55.262Z,5.30
2023-03-11T23:29:56.920Z,4.97
2023-03-11T23:34:58.557Z,6.11
2023-03-11T23:40:00.227Z,5.10
2023-03-11T23:45:02.229Z,5.55
2023-03-11T23:50:04.612Z,5.84
2023-03-11T23:55:06.825Z,5.74
